CYUL/YUL METAR and TAF weather

Enter ICAO airport designator
Station Type Date Time Source
CYUL METAR 2020/08/11 19:00 UTC NOAA

CYUL 111900Z 22013G19KT 15SM SCT060 BKN240 32/21 A2974 RMK SC3CI3 TCU EMBD SLP073 DENSITY ALT 2400FT


Station Type Date Time Source
CYUL Decoded METAR 2020/08/11 19:00 UTC NOAA

Montreal / Pierre Elliot Trudeau International Airport, Que, Canada (CYUL) 45-28N 073-45W 36M
Aug 11, 2020 - 03:00 PM EDT / 2020.08.11 1900 UTC
Wind: from the SW (220 degrees) at 15 MPH (13 KT) gusting to 22 MPH (19 KT):0
Visibility: 15 mile(s):0
Sky conditions: mostly cloudy
Weather: Towering cumulus clouds observed
Temperature: 89 F (32 C)
Dew Point: 69 F (21 C)
Relative Humidity: 52%
Pressure (altimeter): 29.74 in. Hg (1007 hPa)
ob: CYUL 111900Z 22013G19KT 15SM SCT060 BKN240 32/21 A2974 RMK SC3CI3 TCU EMBD SLP073 DENSITY ALT 2400FT
cycle: 19

Station Type Date Time Source
CYUL TAF 2020/08/11 18:51 UTC NOAA

TAF TAF
AMD CYUL 111845Z 1118/1218 17012G25KT P6SM SCT040 BKN110
TEMPO 1118/1120 P6SM VCTS BKN040CB
FM112000 21012G25KT P6SM BKN060
TEMPO 1120/1202 P6SM -SHRA PROB30 1120/1202 VRB20G30KT 11/2SM +TSRA BR BKN020 BKN050CB
FM120200 25012KT P6SM BKN025
TEMPO 1202/1206 P6SM -SHRA BKN020
FM120600 25010KT P6SM SCT010
TEMPO 1206/1210 SCT008 BKN010
FM121500 23012G22KT P6SM FEW030
RMK NXT FCST BY 112100Z

Example: see airport list